createdAt,value
2023-02-19T00:03:53.203Z,11.4
2023-02-19T00:08:53.191Z,11.3
2023-02-19T00:13:53.172Z,11.3
2023-02-19T00:18:53.145Z,11.3
2023-02-19T00:23:53.132Z,11.2
2023-02-19T00:28:53.158Z,11.2
2023-02-19T00:33:53.084Z,11.2
2023-02-19T00:38:53.066Z,11.2
2023-02-19T00:43:53.105Z,11.1
2023-02-19T00:48:53.028Z,11.1
2023-02-19T00:53:53.031Z,11
2023-02-19T00:58:52.991Z,11
2023-02-19T01:03:52.972Z,11
2023-02-19T01:08:52.997Z,10.9
2023-02-19T01:13:52.924Z,10.9
2023-02-19T01:18:52.972Z,10.9
2023-02-19T01:23:52.912Z,10.9
2023-02-19T01:28:52.876Z,10.9
2023-02-19T01:33:52.849Z,10.9
2023-02-19T01:38:52.832Z,10.9
2023-02-19T01:43:52.816Z,10.9
2023-02-19T01:48:52.863Z,10.8
2023-02-19T01:53:52.775Z,10.8
2023-02-19T01:58:52.827Z,10.7
2023-02-19T02:03:52.801Z,10.7
2023-02-19T02:08:52.711Z,10.6
2023-02-19T02:13:52.732Z,10.6
2023-02-19T02:18:52.687Z,10.6
2023-02-19T02:23:52.711Z,10.6
2023-02-19T02:28:52.639Z,10.5
2023-02-19T02:33:52.623Z,10.4
2023-02-19T02:38:52.663Z,10.4
2023-02-19T02:43:52.590Z,10.3
2023-02-19T02:48:52.556Z,10.2
2023-02-19T02:53:52.613Z,10.1
2023-02-19T02:58:52.521Z,10.1
2023-02-19T03:03:52.543Z,10.1
2023-02-19T03:08:52.484Z,10.1
2023-02-19T03:13:52.456Z,10
2023-02-19T03:18:52.434Z,10
2023-02-19T03:23:52.432Z,9.9
2023-02-19T03:28:52.404Z,9.9
2023-02-19T03:33:52.403Z,9.9
2023-02-19T03:38:52.349Z,9.9
2023-02-19T03:43:52.352Z,9.9
2023-02-19T03:48:52.325Z,9.8
2023-02-19T03:53:52.305Z,9.8
2023-02-19T03:58:52.275Z,9.8
2023-02-19T04:03:52.266Z,9.8
2023-02-19T04:08:52.246Z,9.7
2023-02-19T04:13:52.258Z,9.8
2023-02-19T04:18:52.203Z,9.8
2023-02-19T04:23:52.220Z,9.8
2023-02-19T04:28:52.217Z,9.7
2023-02-19T04:33:52.139Z,9.7
2023-02-19T04:38:52.128Z,9.7
2023-02-19T04:43:52.103Z,9.7
2023-02-19T04:48:52.085Z,9.7
2023-02-19T04:53:52.063Z,9.7
2023-02-19T04:58:52.075Z,9.6
2023-02-19T05:03:52.053Z,9.6
2023-02-19T05:08:52.007Z,9.6
2023-02-19T05:13:51.988Z,9.6
2023-02-19T05:18:52.045Z,9.6
2023-02-19T05:23:51.947Z,9.6
2023-02-19T05:28:51.962Z,9.6
2023-02-19T05:33:51.914Z,9.5
2023-02-19T05:38:51.886Z,9.5
2023-02-19T05:43:51.871Z,9.5
2023-02-19T05:48:51.965Z,9.5
2023-02-19T05:53:51.866Z,9.5
2023-02-19T05:58:51.813Z,9.5
2023-02-19T06:03:51.783Z,9.4
2023-02-19T06:08:51.781Z,9.4
2023-02-19T06:13:51.749Z,9.4
2023-02-19T06:18:51.875Z,9.4
2023-02-19T06:23:51.723Z,9.4
2023-02-19T06:28:51.685Z,9.4
2023-02-19T06:33:51.672Z,9.3
2023-02-19T06:38:51.656Z,9.3
2023-02-19T06:43:51.633Z,9.3
2023-02-19T06:48:51.624Z,9.3
2023-02-19T06:53:51.603Z,9.3
2023-02-19T06:58:51.586Z,9.3
2023-02-19T07:03:51.562Z,9.3
2023-02-19T07:08:51.562Z,9.3
2023-02-19T07:13:51.515Z,9.3
2023-02-19T07:18:51.503Z,9.3
2023-02-19T07:23:51.494Z,9.3
2023-02-19T07:28:51.484Z,9.3
2023-02-19T07:33:51.443Z,9.3
2023-02-19T07:38:51.427Z,9.3
2023-02-19T07:43:51.395Z,9.4
2023-02-19T07:48:51.391Z,9.4
2023-02-19T07:53:51.363Z,9.4
2023-02-19T07:58:51.381Z,9.5
2023-02-19T08:03:51.356Z,9.5
2023-02-19T08:08:51.302Z,9.5
2023-02-19T08:13:51.291Z,9.5
2023-02-19T08:18:51.261Z,9.5
2023-02-19T08:23:51.311Z,9.5
2023-02-19T08:28:51.244Z,9.6
2023-02-19T08:33:51.217Z,9.5
2023-02-19T08:38:51.192Z,9.5
2023-02-19T08:43:51.171Z,9.6
2023-02-19T08:48:51.289Z,9.6
2023-02-19T08:53:51.193Z,9.6
2023-02-19T08:58:51.158Z,9.6
2023-02-19T09:03:51.082Z,9.6
2023-02-19T09:08:51.066Z,9.6
2023-02-19T09:13:51.089Z,9.7
2023-02-19T09:18:51.028Z,9.7
2023-02-19T09:23:51.109Z,9.7
2023-02-19T09:28:50.995Z,9.7
2023-02-19T09:33:50.996Z,9.7
2023-02-19T09:38:51.002Z,9.7
2023-02-19T09:43:50.927Z,9.7
2023-02-19T09:48:50.915Z,9.9
2023-02-19T09:53:50.906Z,9.9
2023-02-19T09:58:50.920Z,10
2023-02-19T10:03:50.861Z,10
2023-02-19T10:08:50.887Z,10
2023-02-19T10:13:50.821Z,10
2023-02-19T10:18:50.809Z,10.1
2023-02-19T10:23:50.801Z,10
2023-02-19T10:28:50.748Z,10
2023-02-19T10:33:50.736Z,10.1
2023-02-19T10:38:50.713Z,10.1
2023-02-19T10:43:50.699Z,10.2
2023-02-19T10:48:50.683Z,10.2
2023-02-19T10:53:50.652Z,10.3
2023-02-19T10:58:50.702Z,10.4
2023-02-19T11:03:50.629Z,10.5
2023-02-19T11:08:50.598Z,10.5
2023-02-19T11:13:50.581Z,10.6
2023-02-19T11:18:50.560Z,10.6
2023-02-19T11:23:50.611Z,10.7
2023-02-19T11:28:50.514Z,10.7
2023-02-19T11:33:50.483Z,10.7
2023-02-19T11:38:50.477Z,10.7
2023-02-19T11:43:50.461Z,10.6
2023-02-19T11:48:50.439Z,10.6
2023-02-19T11:53:50.423Z,10.5
2023-02-19T11:58:50.391Z,10.5
2023-02-19T12:03:50.376Z,10.5
2023-02-19T12:08:50.378Z,10.5
2023-02-19T12:13:50.336Z,10.6
2023-02-19T12:18:50.315Z,10.6
2023-02-19T12:23:50.295Z,10.6
2023-02-19T12:28:50.318Z,10.6
2023-02-19T12:33:50.298Z,10.7
2023-02-19T12:38:50.281Z,10.7
2023-02-19T12:43:50.218Z,10.8
2023-02-19T12:48:50.202Z,10.9
2023-02-19T12:53:50.176Z,10.9
2023-02-19T12:58:50.153Z,11
2023-02-19T13:03:50.138Z,11.1
2023-02-19T13:08:50.133Z,11.2
2023-02-19T13:13:50.171Z,11.4
2023-02-19T13:18:50.152Z,11.5
2023-02-19T13:23:50.068Z,11.6
2023-02-19T13:28:50.049Z,11.6
2023-02-19T13:33:50.041Z,11.6
2023-02-19T13:38:50.000Z,11.6
2023-02-19T13:43:49.984Z,11.5
2023-02-19T13:48:49.960Z,11.5
2023-02-19T13:53:49.949Z,11.5
2023-02-19T13:58:49.917Z,11.4
2023-02-19T14:03:49.912Z,11.4
2023-02-19T14:08:49.875Z,11.4
2023-02-19T14:13:49.870Z,11.5
2023-02-19T14:18:49.858Z,11.5
2023-02-19T14:23:49.819Z,11.4
2023-02-19T14:28:49.807Z,11.4
2023-02-19T14:33:49.771Z,11.4
2023-02-19T14:38:49.773Z,11.4
2023-02-19T14:43:49.746Z,11.4
2023-02-19T14:48:49.821Z,11.4
2023-02-19T14:53:49.757Z,11.4
2023-02-19T14:58:49.680Z,11.3
2023-02-19T15:03:49.653Z,11.2
2023-02-19T15:08:49.640Z,11.2
2023-02-19T15:13:49.616Z,11.2
2023-02-19T15:18:49.596Z,11.2
2023-02-19T15:23:49.578Z,11.2
2023-02-19T15:28:49.582Z,11.1
2023-02-19T15:33:49.551Z,11.1
2023-02-19T15:38:49.544Z,11.1
2023-02-19T15:43:49.501Z,11
2023-02-19T15:48:49.492Z,11
2023-02-19T15:53:49.464Z,10.9
2023-02-19T15:58:49.439Z,10.9
2023-02-19T16:03:49.432Z,10.9
2023-02-19T16:08:49.412Z,10.8
2023-02-19T16:13:49.420Z,10.8
2023-02-19T16:18:49.375Z,10.7
2023-02-19T16:23:49.352Z,10.7
2023-02-19T16:28:49.324Z,10.7
2023-02-19T16:33:49.356Z,10.7
2023-02-19T16:38:49.307Z,10.6
2023-02-19T16:43:49.268Z,10.6
2023-02-19T16:48:49.241Z,10.5
2023-02-19T16:53:49.224Z,10.4
2023-02-19T16:58:49.204Z,10.3
2023-02-19T17:03:49.187Z,10.3
2023-02-19T17:08:49.178Z,10.3
2023-02-19T17:13:49.203Z,10.2
2023-02-19T17:18:49.130Z,10.2
2023-02-19T17:23:49.113Z,10.2
2023-02-19T17:28:49.102Z,10.1
2023-02-19T17:33:49.071Z,10.1
2023-02-19T17:38:49.057Z,10.1
2023-02-19T17:43:49.029Z,10.1
2023-02-19T17:48:48.993Z,10.1
2023-02-19T17:53:49.115Z,10
2023-02-19T17:58:48.963Z,10
2023-02-19T18:03:48.941Z,10
2023-02-19T18:08:48.946Z,10
2023-02-19T18:13:48.907Z,10
2023-02-19T18:18:48.900Z,10
2023-02-19T18:23:48.875Z,9.9
2023-02-19T18:28:48.852Z,9.9
2023-02-19T18:33:48.834Z,9.9
2023-02-19T18:38:48.807Z,9.8
2023-02-19T18:43:48.801Z,9.8
2023-02-19T18:48:48.781Z,9.7
2023-02-19T18:53:48.753Z,9.6
2023-02-19T18:58:48.732Z,9.5
2023-02-19T19:03:48.720Z,9.4
2023-02-19T19:08:48.699Z,9.4
2023-02-19T19:13:48.675Z,9.4
2023-02-19T19:18:48.671Z,9.4
2023-02-19T19:23:48.634Z,9.4
2023-02-19T19:28:48.715Z,9.4
2023-02-19T19:33:48.650Z,9.4
2023-02-19T19:38:48.614Z,9.4
2023-02-19T19:43:48.560Z,9.4
2023-02-19T19:48:48.541Z,9.3
2023-02-19T19:53:48.518Z,9.2
2023-02-19T19:58:48.499Z,9.3
2023-02-19T20:03:48.481Z,9.3
2023-02-19T20:08:48.476Z,9.3
2023-02-19T20:13:48.449Z,9.3
2023-02-19T20:18:48.425Z,9.3
2023-02-19T20:23:48.408Z,9.3
2023-02-19T20:28:48.415Z,9.3
2023-02-19T20:33:48.357Z,9.3
2023-02-19T20:38:48.376Z,9.3
2023-02-19T20:43:48.323Z,9.3
2023-02-19T20:48:48.302Z,9.3
2023-02-19T20:53:48.348Z,9.3
2023-02-19T20:58:48.270Z,9.3
2023-02-19T21:03:48.253Z,9.3
2023-02-19T21:08:48.232Z,9.2
2023-02-19T21:13:48.202Z,9.2
2023-02-19T21:18:48.192Z,9.2
2023-02-19T21:23:48.159Z,9.2
2023-02-19T21:28:48.150Z,9.2
2023-02-19T21:33:48.203Z,9.1
2023-02-19T21:38:48.113Z,9.1
2023-02-19T21:43:48.096Z,9.1
2023-02-19T21:48:48.071Z,9
2023-02-19T21:53:48.062Z,8.9
2023-02-19T21:58:48.049Z,8.9
2023-02-19T22:03:48.015Z,8.9
2023-02-19T22:08:47.988Z,8.9
2023-02-19T22:13:47.979Z,8.9
2023-02-19T22:18:47.953Z,8.9
2023-02-19T22:23:47.925Z,8.9
2023-02-19T22:28:47.911Z,8.8
2023-02-19T22:33:47.889Z,8.7
2023-02-19T22:38:47.904Z,8.6
2023-02-19T22:43:47.867Z,8.6
2023-02-19T22:48:47.846Z,8.5
2023-02-19T22:53:47.968Z,8.5
2023-02-19T22:58:47.884Z,8.5
2023-02-19T23:03:47.882Z,8.6
2023-02-19T23:08:47.762Z,8.6
2023-02-19T23:13:47.744Z,8.6
2023-02-19T23:18:47.739Z,8.6
2023-02-19T23:23:47.697Z,8.5
2023-02-19T23:28:47.753Z,8.5
2023-02-19T23:33:47.701Z,8.4
2023-02-19T23:38:47.646Z,8.4
2023-02-19T23:43:47.629Z,8.3
2023-02-19T23:48:47.622Z,8.3
2023-02-19T23:53:47.590Z,8.3
2023-02-19T23:58:47.583Z,8.3
